sensor_id;sensor_type;location;lat;lon;timestamp;pressure;altitude;pressure_sealevel;temperature;humidity
36192;BME280;22233;42.708;23.360;2022-12-24T00:00:24;95296.75;;;4.45;68.51
36192;BME280;22233;42.708;23.360;2022-12-24T00:02:50;95286.81;;;4.45;68.10
36192;BME280;22233;42.708;23.360;2022-12-24T00:05:15;95305.34;;;4.52;68.29
36192;BME280;22233;42.708;23.360;2022-12-24T00:07:41;95312.63;;;4.51;68.49
36192;BME280;22233;42.708;23.360;2022-12-24T00:10:07;95320.59;;;4.67;67.88
36192;BME280;22233;42.708;23.360;2022-12-24T00:12:33;95316.72;;;4.33;69.20
36192;BME280;22233;42.708;23.360;2022-12-24T00:14:58;95301.91;;;4.36;69.12
36192;BME280;22233;42.708;23.360;2022-12-24T00:17:24;95315.59;;;4.45;68.44
36192;BME280;22233;42.708;23.360;2022-12-24T00:19:49;95293.06;;;4.30;68.41
36192;BME280;22233;42.708;23.360;2022-12-24T00:22:15;95297.34;;;4.36;67.25
36192;BME280;22233;42.708;23.360;2022-12-24T00:24:40;95299.50;;;4.34;67.49
36192;BME280;22233;42.708;23.360;2022-12-24T00:27:05;95311.03;;;4.40;67.55
36192;BME280;22233;42.708;23.360;2022-12-24T00:29:32;95310.28;;;4.29;67.71
36192;BME280;22233;42.708;23.360;2022-12-24T00:31:58;95292.00;;;4.26;67.32
36192;BME280;22233;42.708;23.360;2022-12-24T00:34:24;95307.03;;;4.32;67.19
36192;BME280;22233;42.708;23.360;2022-12-24T00:36:50;95300.13;;;4.16;67.44
36192;BME280;22233;42.708;23.360;2022-12-24T00:39:15;95292.34;;;4.09;67.78
36192;BME280;22233;42.708;23.360;2022-12-24T00:41:41;95322.72;;;4.10;68.32
36192;BME280;22233;42.708;23.360;2022-12-24T00:44:07;95318.97;;;4.11;68.34
36192;BME280;22233;42.708;23.360;2022-12-24T00:46:40;95308.53;;;3.99;68.19
36192;BME280;22233;42.708;23.360;2022-12-24T00:49:07;95309.34;;;3.94;69.00
36192;BME280;22233;42.708;23.360;2022-12-24T00:51:33;95296.97;;;3.93;68.74
36192;BME280;22233;42.708;23.360;2022-12-24T00:53:59;95309.59;;;3.98;68.36
36192;BME280;22233;42.708;23.360;2022-12-24T00:56:25;95280.84;;;3.88;68.42
36192;BME280;22233;42.708;23.360;2022-12-24T00:58:51;95314.44;;;3.96;68.40
36192;BME280;22233;42.708;23.360;2022-12-24T01:01:17;95311.81;;;3.65;69.07
36192;BME280;22233;42.708;23.360;2022-12-24T01:03:42;95313.66;;;3.80;68.75
36192;BME280;22233;42.708;23.360;2022-12-24T01:06:13;95313.66;;;3.85;69.03
36192;BME280;22233;42.708;23.360;2022-12-24T01:08:39;95312.59;;;3.81;68.23
36192;BME280;22233;42.708;23.360;2022-12-24T01:11:06;95303.75;;;3.60;68.41
36192;BME280;22233;42.708;23.360;2022-12-24T01:13:33;95308.03;;;3.66;69.08
36192;BME280;22233;42.708;23.360;2022-12-24T01:15:58;95311.84;;;3.55;69.24
36192;BME280;22233;42.708;23.360;2022-12-24T01:18:24;95322.03;;;3.48;69.87
36192;BME280;22233;42.708;23.360;2022-12-24T01:21:00;95305.13;;;3.37;69.71
36192;BME280;22233;42.708;23.360;2022-12-24T01:23:27;95298.16;;;3.41;69.57
36192;BME280;22233;42.708;23.360;2022-12-24T01:25:53;95296.28;;;3.31;70.00
36192;BME280;22233;42.708;23.360;2022-12-24T01:28:20;95306.47;;;3.29;71.01
36192;BME280;22233;42.708;23.360;2022-12-24T01:30:45;95295.72;;;3.39;70.09
36192;BME280;22233;42.708;23.360;2022-12-24T01:33:12;95303.00;;;3.44;69.68
36192;BME280;22233;42.708;23.360;2022-12-24T01:35:41;95297.34;;;3.35;69.24
36192;BME280;22233;42.708;23.360;2022-12-24T01:38:07;95306.50;;;3.24;69.99
36192;BME280;22233;42.708;23.360;2022-12-24T01:40:32;95316.44;;;3.44;70.12
36192;BME280;22233;42.708;23.360;2022-12-24T01:43:19;95309.16;;;3.50;70.00
36192;BME280;22233;42.708;23.360;2022-12-24T01:45:49;95325.53;;;3.53;69.70
36192;BME280;22233;42.708;23.360;2022-12-24T01:51:03;95303.25;;;3.53;69.44
36192;BME280;22233;42.708;23.360;2022-12-24T01:53:30;95301.38;;;3.58;68.96
36192;BME280;22233;42.708;23.360;2022-12-24T01:55:56;95301.34;;;3.53;69.31
36192;BME280;22233;42.708;23.360;2022-12-24T01:58:23;95301.63;;;3.52;69.27
36192;BME280;22233;42.708;23.360;2022-12-24T02:00:49;95312.09;;;3.58;68.74
36192;BME280;22233;42.708;23.360;2022-12-24T02:03:15;95306.72;;;3.58;69.46
36192;BME280;22233;42.708;23.360;2022-12-24T02:05:49;95299.19;;;3.66;68.43
36192;BME280;22233;42.708;23.360;2022-12-24T02:08:16;95295.97;;;3.69;68.72
36192;BME280;22233;42.708;23.360;2022-12-24T02:10:44;95291.66;;;3.68;68.67
36192;BME280;22233;42.708;23.360;2022-12-24T02:13:10;95296.22;;;3.67;68.57
36192;BME280;22233;42.708;23.360;2022-12-24T02:32:17;95302.41;;;3.68;67.84
36192;BME280;22233;42.708;23.360;2022-12-24T02:34:45;95306.72;;;3.58;68.45
36192;BME280;22233;42.708;23.360;2022-12-24T02:37:26;95311.81;;;3.60;67.46
36192;BME280;22233;42.708;23.360;2022-12-24T02:39:55;95303.22;;;3.63;68.37
36192;BME280;22233;42.708;23.360;2022-12-24T02:42:26;95301.59;;;3.62;69.19
36192;BME280;22233;42.708;23.360;2022-12-24T02:45:06;95284.75;;;3.20;70.41
36192;BME280;22233;42.708;23.360;2022-12-24T02:47:34;95282.31;;;3.04;72.13
36192;BME280;22233;42.708;23.360;2022-12-24T02:50:00;95302.47;;;3.06;70.67
36192;BME280;22233;42.708;23.360;2022-12-24T02:52:31;95286.91;;;3.08;71.04
36192;BME280;22233;42.708;23.360;2022-12-24T02:55:01;95283.66;;;3.27;71.02
36192;BME280;22233;42.708;23.360;2022-12-24T03:00:09;95279.91;;;3.23;69.53
36192;BME280;22233;42.708;23.360;2022-12-24T03:11:02;95284.75;;;2.90;69.04
36192;BME280;22233;42.708;23.360;2022-12-24T03:13:30;95294.13;;;2.82;69.28
36192;BME280;22233;42.708;23.360;2022-12-24T03:15:55;95282.56;;;2.71;69.22
36192;BME280;22233;42.708;23.360;2022-12-24T03:18:25;95272.38;;;2.73;69.58
36192;BME280;22233;42.708;23.360;2022-12-24T03:21:00;95282.56;;;2.71;69.86
36192;BME280;22233;42.708;23.360;2022-12-24T03:23:28;95280.09;;;2.44;71.03
36192;BME280;22233;42.708;23.360;2022-12-24T03:25:54;95291.63;;;2.45;71.65
36192;BME280;22233;42.708;23.360;2022-12-24T03:28:25;95277.97;;;2.46;71.15
36192;BME280;22233;42.708;23.360;2022-12-24T03:30:51;95287.34;;;2.44;71.91
36192;BME280;22233;42.708;23.360;2022-12-24T03:33:17;95281.88;;;2.13;72.81
36192;BME280;22233;42.708;23.360;2022-12-24T03:35:44;95289.91;;;2.13;73.30
36192;BME280;22233;42.708;23.360;2022-12-24T03:38:10;95282.97;;;2.12;73.12
36192;BME280;22233;42.708;23.360;2022-12-24T03:40:35;95277.34;;;2.13;73.69
36192;BME280;22233;42.708;23.360;2022-12-24T03:43:01;95291.06;;;2.32;72.99
36192;BME280;22233;42.708;23.360;2022-12-24T03:45:26;95290.50;;;2.20;74.15
36192;BME280;22233;42.708;23.360;2022-12-24T03:47:52;95279.78;;;2.30;72.78
36192;BME280;22233;42.708;23.360;2022-12-24T03:50:17;95293.16;;;2.20;74.00
36192;BME280;22233;42.708;23.360;2022-12-24T03:52:43;95278.66;;;2.11;73.42
36192;BME280;22233;42.708;23.360;2022-12-24T03:55:08;95292.84;;;2.06;74.36
36192;BME280;22233;42.708;23.360;2022-12-24T03:57:34;95279.91;;;1.93;74.57
36192;BME280;22233;42.708;23.360;2022-12-24T03:59:59;95291.28;;;2.15;72.47
36192;BME280;22233;42.708;23.360;2022-12-24T04:02:24;95296.34;;;2.12;72.48
36192;BME280;22233;42.708;23.360;2022-12-24T04:04:50;95301.78;;;1.69;74.32
36192;BME280;22233;42.708;23.360;2022-12-24T04:07:15;95299.97;;;1.80;73.94
36192;BME280;22233;42.708;23.360;2022-12-24T04:09:41;95284.47;;;1.87;74.60
36192;BME280;22233;42.708;23.360;2022-12-24T04:12:07;95300.00;;;1.85;74.84
36192;BME280;22233;42.708;23.360;2022-12-24T04:14:32;95314.28;;;2.06;74.59
36192;BME280;22233;42.708;23.360;2022-12-24T04:16:58;95310.84;;;2.21;75.18
36192;BME280;22233;42.708;23.360;2022-12-24T04:19:23;95308.19;;;2.31;74.52
36192;BME280;22233;42.708;23.360;2022-12-24T04:21:49;95299.53;;;2.04;74.42
36192;BME280;22233;42.708;23.360;2022-12-24T04:24:14;95316.25;;;2.26;73.68
36192;BME280;22233;42.708;23.360;2022-12-24T04:26:39;95305.53;;;2.31;72.89
36192;BME280;22233;42.708;23.360;2022-12-24T04:29:05;95325.66;;;2.39;74.08
36192;BME280;22233;42.708;23.360;2022-12-24T04:31:30;95309.78;;;2.22;74.29
36192;BME280;22233;42.708;23.360;2022-12-24T04:33:56;95335.25;;;2.19;73.74
36192;BME280;22233;42.708;23.360;2022-12-24T04:36:21;95330.00;;;2.50;71.80
36192;BME280;22233;42.708;23.360;2022-12-24T04:38:47;95334.53;;;2.45;72.38
36192;BME280;22233;42.708;23.360;2022-12-24T04:41:16;95322.34;;;2.16;73.23
36192;BME280;22233;42.708;23.360;2022-12-24T04:43:42;95333.63;;;2.18;73.38
36192;BME280;22233;42.708;23.360;2022-12-24T04:46:14;95343.53;;;2.18;73.25
36192;BME280;22233;42.708;23.360;2022-12-24T04:48:42;95333.28;;;2.05;72.26
36192;BME280;22233;42.708;23.360;2022-12-24T04:51:08;95344.81;;;2.05;71.24
36192;BME280;22233;42.708;23.360;2022-12-24T04:53:35;95322.22;;;1.91;71.28
36192;BME280;22233;42.708;23.360;2022-12-24T04:56:02;95333.69;;;1.81;71.64
36192;BME280;22233;42.708;23.360;2022-12-24T04:58:27;95322.94;;;1.71;70.93
36192;BME280;22233;42.708;23.360;2022-12-24T05:00:54;95317.97;;;1.47;71.25
36192;BME280;22233;42.708;23.360;2022-12-24T05:03:19;95325.03;;;1.26;71.84
36192;BME280;22233;42.708;23.360;2022-12-24T05:05:45;95340.69;;;1.45;71.48
36192;BME280;22233;42.708;23.360;2022-12-24T05:08:12;95332.38;;;1.41;71.69
36192;BME280;22233;42.708;23.360;2022-12-24T05:10:37;95317.81;;;1.27;71.87
36192;BME280;22233;42.708;23.360;2022-12-24T05:13:02;95316.84;;;1.38;71.87
36192;BME280;22233;42.708;23.360;2022-12-24T05:15:28;95321.69;;;1.41;71.31
36192;BME280;22233;42.708;23.360;2022-12-24T05:17:53;95307.94;;;1.27;71.33
36192;BME280;22233;42.708;23.360;2022-12-24T05:20:19;95300.50;;;1.02;72.86
36192;BME280;22233;42.708;23.360;2022-12-24T05:22:44;95314.22;;;1.11;72.31
36192;BME280;22233;42.708;23.360;2022-12-24T05:25:33;95293.56;;;0.74;72.61
36192;BME280;22233;42.708;23.360;2022-12-24T05:28:19;95308.03;;;0.78;73.94
36192;BME280;22233;42.708;23.360;2022-12-24T05:30:44;95321.22;;;0.85;74.35
36192;BME280;22233;42.708;23.360;2022-12-24T05:33:10;95318.97;;;0.71;74.40
36192;BME280;22233;42.708;23.360;2022-12-24T05:35:35;95307.03;;;0.84;73.30
36192;BME280;22233;42.708;23.360;2022-12-24T05:38:00;95290.31;;;0.67;73.43
36192;BME280;22233;42.708;23.360;2022-12-24T05:40:26;95324.94;;;0.84;73.42
36192;BME280;22233;42.708;23.360;2022-12-24T05:42:51;95320.25;;;0.96;74.13
36192;BME280;22233;42.708;23.360;2022-12-24T05:45:17;95310.47;;;0.79;74.66
36192;BME280;22233;42.708;23.360;2022-12-24T05:47:42;95305.59;;;1.04;73.62
36192;BME280;22233;42.708;23.360;2022-12-24T05:50:08;95308.59;;;1.12;73.93
36192;BME280;22233;42.708;23.360;2022-12-24T05:52:34;95307.09;;;1.27;71.99
36192;BME280;22233;42.708;23.360;2022-12-24T05:54:59;95306.75;;;1.13;72.72
36192;BME280;22233;42.708;23.360;2022-12-24T05:57:25;95299.84;;;0.85;73.80
36192;BME280;22233;42.708;23.360;2022-12-24T05:59:50;95300.53;;;0.75;74.20
36192;BME280;22233;42.708;23.360;2022-12-24T06:02:16;95316.44;;;0.87;74.35
36192;BME280;22233;42.708;23.360;2022-12-24T06:04:42;95322.16;;;1.00;74.02
36192;BME280;22233;42.708;23.360;2022-12-24T06:07:08;95327.41;;;0.90;74.09
36192;BME280;22233;42.708;23.360;2022-12-24T06:09:33;95316.47;;;0.92;74.54
36192;BME280;22233;42.708;23.360;2022-12-24T06:11:58;95317.16;;;1.09;74.14
36192;BME280;22233;42.708;23.360;2022-12-24T06:14:24;95292.22;;;1.04;72.38
36192;BME280;22233;42.708;23.360;2022-12-24T06:16:50;95328.50;;;1.27;73.07
36192;BME280;22233;42.708;23.360;2022-12-24T06:19:15;95331.19;;;1.27;73.28
36192;BME280;22233;42.708;23.360;2022-12-24T06:21:40;95333.59;;;1.23;72.74
36192;BME280;22233;42.708;23.360;2022-12-24T06:24:06;95321.34;;;1.32;72.35
36192;BME280;22233;42.708;23.360;2022-12-24T06:26:31;95333.44;;;1.40;71.86
36192;BME280;22233;42.708;23.360;2022-12-24T06:28:57;95326.69;;;1.00;73.62
36192;BME280;22233;42.708;23.360;2022-12-24T06:31:23;95333.69;;;1.06;74.53
36192;BME280;22233;42.708;23.360;2022-12-24T06:33:49;95335.25;;;0.97;74.39
36192;BME280;22233;42.708;23.360;2022-12-24T06:36:17;95349.19;;;1.36;73.80
36192;BME280;22233;42.708;23.360;2022-12-24T06:38:44;95349.66;;;1.23;74.39
36192;BME280;22233;42.708;23.360;2022-12-24T06:41:09;95356.06;;;1.59;73.61
36192;BME280;22233;42.708;23.360;2022-12-24T06:43:35;95361.47;;;1.27;74.66
36192;BME280;22233;42.708;23.360;2022-12-24T06:46:01;95354.69;;;1.57;74.07
36192;BME280;22233;42.708;23.360;2022-12-24T06:48:27;95350.16;;;1.57;73.42
36192;BME280;22233;42.708;23.360;2022-12-24T06:50:52;95360.88;;;1.57;74.10
36192;BME280;22233;42.708;23.360;2022-12-24T06:53:18;95342.88;;;1.53;73.94
36192;BME280;22233;42.708;23.360;2022-12-24T06:55:43;95369.53;;;1.75;73.38
36192;BME280;22233;42.708;23.360;2022-12-24T06:58:08;95356.44;;;1.78;72.69
36192;BME280;22233;42.708;23.360;2022-12-24T07:00:34;95375.81;;;1.91;73.03
36192;BME280;22233;42.708;23.360;2022-12-24T07:03:00;95363.84;;;2.09;72.80
36192;BME280;22233;42.708;23.360;2022-12-24T07:05:26;95369.03;;;1.40;75.20
36192;BME280;22233;42.708;23.360;2022-12-24T07:07:51;95356.16;;;1.75;74.30
36192;BME280;22233;42.708;23.360;2022-12-24T07:10:18;95349.91;;;2.07;75.23
36192;BME280;22233;42.708;23.360;2022-12-24T07:12:43;95360.19;;;2.25;74.78
36192;BME280;22233;42.708;23.360;2022-12-24T07:15:10;95365.81;;;2.29;74.03
36192;BME280;22233;42.708;23.360;2022-12-24T07:17:36;95365.81;;;2.29;74.95
36192;BME280;22233;42.708;23.360;2022-12-24T07:20:02;95353.63;;;1.95;75.67
36192;BME280;22233;42.708;23.360;2022-12-24T07:22:28;95355.00;;;2.08;75.71
36192;BME280;22233;42.708;23.360;2022-12-24T07:24:53;95361.19;;;2.09;75.88
36192;BME280;22233;42.708;23.360;2022-12-24T07:27:19;95352.59;;;2.07;75.88
36192;BME280;22233;42.708;23.360;2022-12-24T07:29:44;95359.22;;;1.94;76.46
36192;BME280;22233;42.708;23.360;2022-12-24T07:32:09;95352.59;;;2.07;76.08
36192;BME280;22233;42.708;23.360;2022-12-24T07:34:35;95349.56;;;2.46;74.73
36192;BME280;22233;42.708;23.360;2022-12-24T07:37:00;95326.94;;;2.21;75.52
36192;BME280;22233;42.708;23.360;2022-12-24T07:39:26;95374.88;;;2.80;74.47
36192;BME280;22233;42.708;23.360;2022-12-24T07:41:51;95355.19;;;2.49;74.28
36192;BME280;22233;42.708;23.360;2022-12-24T07:44:17;95347.69;;;2.46;75.80
36192;BME280;22233;42.708;23.360;2022-12-24T07:46:43;95363.63;;;2.94;74.59
36192;BME280;22233;42.708;23.360;2022-12-24T07:49:08;95361.00;;;3.25;72.79
36192;BME280;22233;42.708;23.360;2022-12-24T07:51:34;95367.16;;;3.25;73.61
36192;BME280;22233;42.708;23.360;2022-12-24T07:54:00;95360.97;;;3.14;74.19
36192;BME280;22233;42.708;23.360;2022-12-24T07:56:25;95357.22;;;3.15;73.76
36192;BME280;22233;42.708;23.360;2022-12-24T07:58:51;95379.44;;;2.95;74.53
36192;BME280;22233;42.708;23.360;2022-12-24T08:01:17;95375.19;;;3.15;73.92
36192;BME280;22233;42.708;23.360;2022-12-24T08:03:43;95376.56;;;3.48;72.84
36192;BME280;22233;42.708;23.360;2022-12-24T08:06:09;95393.75;;;3.63;73.84
36192;BME280;22233;42.708;23.360;2022-12-24T08:08:35;95401.81;;;3.83;73.44
36192;BME280;22233;42.708;23.360;2022-12-24T08:11:02;95362.59;;;3.67;73.04
36192;BME280;22233;42.708;23.360;2022-12-24T08:13:28;95408.00;;;3.89;73.75
36192;BME280;22233;42.708;23.360;2022-12-24T08:15:54;95396.66;;;4.02;72.31
36192;BME280;22233;42.708;23.360;2022-12-24T08:18:19;95408.69;;;4.30;72.12
36192;BME280;22233;42.708;23.360;2022-12-24T08:20:45;95408.25;;;4.03;72.59
36192;BME280;22233;42.708;23.360;2022-12-24T08:23:10;95404.44;;;4.14;73.18
36192;BME280;22233;42.708;23.360;2022-12-24T08:25:36;95403.41;;;3.94;73.45
36192;BME280;22233;42.708;23.360;2022-12-24T08:28:02;95399.91;;;3.94;74.73
36192;BME280;22233;42.708;23.360;2022-12-24T08:30:28;95389.94;;;4.15;73.52
36192;BME280;22233;42.708;23.360;2022-12-24T08:32:53;95377.81;;;4.12;73.19
36192;BME280;22233;42.708;23.360;2022-12-24T08:35:19;95388.28;;;4.24;73.41
36192;BME280;22233;42.708;23.360;2022-12-24T08:37:45;95369.72;;;4.28;72.37
36192;BME280;22233;42.708;23.360;2022-12-24T08:40:11;95375.34;;;4.36;73.32
36192;BME280;22233;42.708;23.360;2022-12-24T08:42:36;95351.91;;;4.42;72.24
36192;BME280;22233;42.708;23.360;2022-12-24T08:45:02;95351.06;;;4.52;72.28
36192;BME280;22233;42.708;23.360;2022-12-24T08:47:27;95363.09;;;4.70;72.04
36192;BME280;22233;42.708;23.360;2022-12-24T08:49:53;95372.41;;;4.93;71.92
36192;BME280;22233;42.708;23.360;2022-12-24T08:52:18;95369.75;;;4.88;72.11
36192;BME280;22233;42.708;23.360;2022-12-24T08:54:44;95374.53;;;4.96;72.05
36192;BME280;22233;42.708;23.360;2022-12-24T08:57:09;95390.84;;;5.15;71.32
36192;BME280;22233;42.708;23.360;2022-12-24T08:59:34;95399.97;;;4.69;73.69
36192;BME280;22233;42.708;23.360;2022-12-24T09:02:00;95388.91;;;4.76;73.46
36192;BME280;22233;42.708;23.360;2022-12-24T09:04:26;95392.06;;;4.88;73.81
36192;BME280;22233;42.708;23.360;2022-12-24T09:06:52;95383.66;;;5.05;72.26
36192;BME280;22233;42.708;23.360;2022-12-24T09:09:17;95392.25;;;5.07;72.50
36192;BME280;22233;42.708;23.360;2022-12-24T09:11:42;95389.72;;;5.21;72.03
36192;BME280;22233;42.708;23.360;2022-12-24T09:14:09;95380.78;;;5.31;71.35
36192;BME280;22233;42.708;23.360;2022-12-24T09:16:34;95388.06;;;5.30;72.05
36192;BME280;22233;42.708;23.360;2022-12-24T09:19:00;95389.84;;;5.45;70.99
36192;BME280;22233;42.708;23.360;2022-12-24T09:21:25;95385.28;;;5.40;70.94
36192;BME280;22233;42.708;23.360;2022-12-24T09:23:51;95387.09;;;5.55;71.09
36192;BME280;22233;42.708;23.360;2022-12-24T09:26:22;95381.25;;;4.98;72.10
36192;BME280;22233;42.708;23.360;2022-12-24T09:28:48;95365.84;;;5.09;71.58
36192;BME280;22233;42.708;23.360;2022-12-24T09:31:14;95381.00;;;5.39;71.54
36192;BME280;22233;42.708;23.360;2022-12-24T09:33:40;95376.34;;;5.45;70.99
36192;BME280;22233;42.708;23.360;2022-12-24T09:36:07;95389.28;;;5.48;70.61
36192;BME280;22233;42.708;23.360;2022-12-24T09:38:33;95389.09;;;5.39;71.43
36192;BME280;22233;42.708;23.360;2022-12-24T09:40:59;95376.16;;;5.42;71.14
36192;BME280;22233;42.708;23.360;2022-12-24T09:43:31;95366.09;;;5.47;71.19
36192;BME280;22233;42.708;23.360;2022-12-24T09:48:48;95371.34;;;5.68;70.35
36192;BME280;22233;42.708;23.360;2022-12-24T09:52:22;95365.03;;;5.77;70.30
36192;BME280;22233;42.708;23.360;2022-12-24T09:54:19;95334.16;;;5.70;70.02
36192;BME280;22233;42.708;23.360;2022-12-24T09:56:47;95363.59;;;5.90;70.02
36192;BME280;22233;42.708;23.360;2022-12-24T09:59:20;95362.78;;;5.95;70.19
36192;BME280;22233;42.708;23.360;2022-12-24T10:01:48;95346.25;;;5.72;69.84
36192;BME280;22233;42.708;23.360;2022-12-24T10:04:17;95354.53;;;5.47;70.71
36192;BME280;22233;42.708;23.360;2022-12-24T10:12:19;95372.53;;;5.51;71.08
36192;BME280;22233;42.708;23.360;2022-12-24T10:25:28;95339.31;;;6.19;70.24
36192;BME280;22233;42.708;23.360;2022-12-24T10:27:57;95342.47;;;6.03;70.80
36192;BME280;22233;42.708;23.360;2022-12-24T10:30:24;95348.63;;;6.32;69.20
36192;BME280;22233;42.708;23.360;2022-12-24T10:32:51;95357.25;;;6.34;69.46
36192;BME280;22233;42.708;23.360;2022-12-24T10:35:31;95340.75;;;5.83;71.26
36192;BME280;22233;42.708;23.360;2022-12-24T10:37:59;95332.31;;;5.89;70.58
36192;BME280;22233;42.708;23.360;2022-12-24T10:40:45;95349.72;;;6.31;69.72
36192;BME280;22233;42.708;23.360;2022-12-24T10:43:24;95329.47;;;6.58;69.58
36192;BME280;22233;42.708;23.360;2022-12-24T10:45:52;95327.47;;;6.64;68.76
36192;BME280;22233;42.708;23.360;2022-12-24T10:48:26;95316.00;;;6.53;68.94
36192;BME280;22233;42.708;23.360;2022-12-24T10:51:01;95318.72;;;6.72;68.01
36192;BME280;22233;42.708;23.360;2022-12-24T10:53:42;95309.03;;;6.90;67.57
36192;BME280;22233;42.708;23.360;2022-12-24T10:56:12;95327.00;;;6.80;67.39
36192;BME280;22233;42.708;23.360;2022-12-24T10:58:46;95337.06;;;6.94;67.38
36192;BME280;22233;42.708;23.360;2022-12-24T11:01:15;95334.00;;;7.00;67.07
36192;BME280;22233;42.708;23.360;2022-12-24T11:03:40;95323.56;;;6.94;66.89
36192;BME280;22233;42.708;23.360;2022-12-24T11:08:33;95339.91;;;7.22;67.05
36192;BME280;22233;42.708;23.360;2022-12-24T11:11:01;95311.81;;;6.85;67.39
36192;BME280;22233;42.708;23.360;2022-12-24T11:13:30;95335.38;;;6.98;67.68
36192;BME280;22233;42.708;23.360;2022-12-24T11:18:26;95304.78;;;7.22;66.83
36192;BME280;22233;42.708;23.360;2022-12-24T11:20:52;95306.88;;;7.44;65.72
36192;BME280;22233;42.708;23.360;2022-12-24T11:23:18;95323.06;;;7.63;65.93
36192;BME280;22233;42.708;23.360;2022-12-24T11:25:49;95321.38;;;7.67;66.22
36192;BME280;22233;42.708;23.360;2022-12-24T11:31:01;95324.09;;;7.80;65.40
36192;BME280;22233;42.708;23.360;2022-12-24T11:33:28;95317.16;;;7.74;65.21
36192;BME280;22233;42.708;23.360;2022-12-24T11:36:00;95326.00;;;7.80;65.60
36192;BME280;22233;42.708;23.360;2022-12-24T11:38:28;95329.47;;;8.13;65.06
36192;BME280;22233;42.708;23.360;2022-12-24T11:41:12;95323.75;;;8.29;64.46
36192;BME280;22233;42.708;23.360;2022-12-24T11:43:45;95319.19;;;8.43;63.65
36192;BME280;22233;42.708;23.360;2022-12-24T11:46:37;95321.19;;;8.51;63.67
36192;BME280;22233;42.708;23.360;2022-12-24T11:49:05;95329.41;;;8.74;62.89
36192;BME280;22233;42.708;23.360;2022-12-24T11:51:39;95317.44;;;8.89;61.67
36192;BME280;22233;42.708;23.360;2022-12-24T11:56:44;95282.81;;;9.22;60.59
36192;BME280;22233;42.708;23.360;2022-12-24T11:59:18;95315.34;;;9.22;61.31
36192;BME280;22233;42.708;23.360;2022-12-24T12:04:39;95305.28;;;9.68;60.77
36192;BME280;22233;42.708;23.360;2022-12-24T12:07:13;95307.75;;;9.55;61.63
36192;BME280;22233;42.708;23.360;2022-12-24T12:09:52;95311.53;;;9.46;61.31
36192;BME280;22233;42.708;23.360;2022-12-24T12:12:23;95300.31;;;9.61;60.79
36192;BME280;22233;42.708;23.360;2022-12-24T12:14:57;95309.34;;;9.79;61.09
36192;BME280;22233;42.708;23.360;2022-12-24T12:17:39;95304.78;;;9.88;59.52
36192;BME280;22233;42.708;23.360;2022-12-24T12:23:01;95306.16;;;9.77;60.74
36192;BME280;22233;42.708;23.360;2022-12-24T12:28:34;95317.28;;;9.44;62.83
36192;BME280;22233;42.708;23.360;2022-12-24T12:36:20;95319.72;;;9.77;62.17
36192;BME280;22233;42.708;23.360;2022-12-24T12:38:47;95305.53;;;9.80;62.46
36192;BME280;22233;42.708;23.360;2022-12-24T12:41:37;95306.94;;;9.77;62.96
36192;BME280;22233;42.708;23.360;2022-12-24T12:52:26;95319.28;;;9.38;62.77
36192;BME280;22233;42.708;23.360;2022-12-24T12:57:50;95328.41;;;9.43;62.49
36192;BME280;22233;42.708;23.360;2022-12-24T13:00:18;95325.09;;;9.46;63.30
36192;BME280;22233;42.708;23.360;2022-12-24T13:03:12;95324.41;;;9.40;63.50
36192;BME280;22233;42.708;23.360;2022-12-24T13:10:57;95328.25;;;8.89;64.44
36192;BME280;22233;42.708;23.360;2022-12-24T13:22:15;95351.81;;;9.16;64.38
36192;BME280;22233;42.708;23.360;2022-12-24T13:24:48;95342.34;;;9.13;64.36
36192;BME280;22233;42.708;23.360;2022-12-24T13:27:24;95350.47;;;9.13;64.62
36192;BME280;22233;42.708;23.360;2022-12-24T13:29:59;95362.63;;;9.16;64.50
36192;BME280;22233;42.708;23.360;2022-12-24T13:35:00;95359.28;;;9.33;63.64
36192;BME280;22233;42.708;23.360;2022-12-24T13:50:51;95361.50;;;9.17;64.06
36192;BME280;22233;42.708;23.360;2022-12-24T13:53:32;95359.59;;;9.17;64.29
36192;BME280;22233;42.708;23.360;2022-12-24T13:58:27;95372.03;;;9.32;64.37
36192;BME280;22233;42.708;23.360;2022-12-24T14:00:56;95377.25;;;9.29;63.93
36192;BME280;22233;42.708;23.360;2022-12-24T14:03:27;95362.22;;;9.23;64.62
36192;BME280;22233;42.708;23.360;2022-12-24T14:06:02;95359.47;;;9.36;64.28
36192;BME280;22233;42.708;23.360;2022-12-24T14:08:42;95361.69;;;9.34;64.88
36192;BME280;22233;42.708;23.360;2022-12-24T14:11:12;95378.09;;;9.52;64.16
36192;BME280;22233;42.708;23.360;2022-12-24T14:16:04;95386.16;;;9.43;64.65
36192;BME280;22233;42.708;23.360;2022-12-24T14:18:36;95382.03;;;9.46;65.50
36192;BME280;22233;42.708;23.360;2022-12-24T14:21:03;95374.50;;;9.43;64.30
36192;BME280;22233;42.708;23.360;2022-12-24T14:23:57;95382.69;;;9.29;65.57
36192;BME280;22233;42.708;23.360;2022-12-24T14:26:27;95380.63;;;9.12;65.84
36192;BME280;22233;42.708;23.360;2022-12-24T14:29:01;95382.34;;;8.94;66.98
36192;BME280;22233;42.708;23.360;2022-12-24T14:31:27;95376.63;;;8.95;66.87
36192;BME280;22233;42.708;23.360;2022-12-24T14:34:08;95386.97;;;8.79;67.98
36192;BME280;22233;42.708;23.360;2022-12-24T14:36:34;95386.81;;;9.12;67.11
36192;BME280;22233;42.708;23.360;2022-12-24T14:39:00;95389.03;;;9.10;69.44
36192;BME280;22233;42.708;23.360;2022-12-24T14:41:43;95385.59;;;9.18;68.90
36192;BME280;22233;42.708;23.360;2022-12-24T14:44:16;95400.63;;;9.38;68.54
36192;BME280;22233;42.708;23.360;2022-12-24T14:46:49;95397.91;;;9.38;68.97
36192;BME280;22233;42.708;23.360;2022-12-24T14:52:17;95388.81;;;9.20;69.07
36192;BME280;22233;42.708;23.360;2022-12-24T14:54:47;95388.56;;;8.94;69.23
36192;BME280;22233;42.708;23.360;2022-12-24T14:57:22;95380.63;;;8.98;69.60
36192;BME280;22233;42.708;23.360;2022-12-24T14:59:55;95380.72;;;8.93;70.24
36192;BME280;22233;42.708;23.360;2022-12-24T15:02:46;95402.88;;;9.09;70.69
36192;BME280;22233;42.708;23.360;2022-12-24T15:07:41;95400.88;;;9.14;70.79
36192;BME280;22233;42.708;23.360;2022-12-24T15:12:48;95408.19;;;9.28;70.19